Time;durP1;ratioP1;P1;durP2;ratioP2;P2;SDS_P1;SDS_P2;PMS_P1;PMS_P2;Temp;Humidity;BMP_temperature;BMP_pressure;BME280_temperature;BME280_humidity;BME280_pressure;Samples;Min_cycle;Max_cycle;Signal;HPM_P1;HPM_P2
2022/12/20 00:00:03;;;;;;;1.80;0.30;;;14.00;99.90;14.20;100115.00;;;;341954;28;90557;-92
2022/12/20 00:00:16;;;;;;;1.10;0.17;;;14.00;99.90;14.20;100122.00;;;;343658;28;83505;-92
2022/12/20 00:00:28;;;;;;;1.45;0.10;;;14.00;99.90;14.20;100122.00;;;;343345;28;92174;-92
2022/12/20 00:00:42;;;;;;;1.40;0.13;;;14.00;99.90;14.20;100125.00;;;;343678;28;82973;-92
2022/12/20 00:00:54;;;;;;;0.82;0.15;;;14.00;99.90;14.10;100110.00;;;;343294;28;91542;-92
2022/12/20 00:01:10;;;;;;;0.70;0.20;;;14.00;99.90;14.10;100098.00;;;;342381;28;83687;-92
2022/12/20 00:01:25;;;;;;;0.60;0.20;;;14.00;99.90;14.20;100106.00;;;;340500;28;89971;-92
2022/12/20 00:01:37;;;;;;;0.88;0.20;;;14.00;99.90;14.20;100112.00;;;;342288;28;83660;-92
2022/12/20 00:01:49;;;;;;;0.93;0.10;;;14.00;99.90;14.20;100109.00;;;;343430;28;90746;-92
2022/12/20 00:02:01;;;;;;;1.50;0.20;;;14.00;99.90;14.20;100117.00;;;;343660;28;84094;-92
2022/12/20 00:02:13;;;;;;;1.30;0.20;;;14.00;99.90;14.20;100106.00;;;;342421;28;88114;-92
2022/12/20 00:02:25;;;;;;;1.10;0.20;;;14.00;99.90;14.20;100105.00;;;;344888;28;83881;-93
2022/12/20 00:02:37;;;;;;;0.68;0.10;;;14.00;99.90;14.20;100102.00;;;;343080;28;90518;-92
2022/12/20 00:02:49;;;;;;;0.68;0.20;;;14.00;99.90;14.30;100110.00;;;;342226;28;84124;-93
2022/12/20 00:03:01;;;;;;;0.32;0.10;;;14.00;99.90;14.30;100110.00;;;;344493;28;91531;-93
2022/12/20 00:03:13;;;;;;;1.70;0.10;;;14.00;99.90;14.20;100094.00;;;;342207;28;85363;-92
2022/12/20 00:03:25;;;;;;;1.98;0.10;;;14.00;99.90;14.30;100101.00;;;;343389;28;90793;-92
2022/12/20 00:03:37;;;;;;;1.88;0.10;;;14.00;99.90;14.20;100089.00;;;;342393;28;84084;-92
2022/12/20 00:03:50;;;;;;;0.80;0.10;;;14.00;99.90;14.20;100103.00;;;;341837;28;91088;-92
2022/12/20 00:04:04;;;;;;;0.80;0.10;;;14.00;99.90;14.20;100113.00;;;;342306;28;83768;-92
2022/12/20 00:04:16;;;;;;;0.60;0.20;;;14.00;99.90;14.30;100097.00;;;;340752;28;91004;-92
2022/12/20 00:04:28;;;;;;;0.75;0.30;;;14.00;99.90;14.20;100099.00;;;;343579;28;83217;-92
2022/12/20 00:04:40;;;;;;;0.65;0.22;;;14.00;99.90;14.20;100100.00;;;;344695;28;91750;-92
2022/12/20 00:04:52;;;;;;;0.68;0.30;;;14.00;99.90;14.20;100104.00;;;;343435;28;83868;-92
2022/12/20 00:05:05;;;;;;;0.88;0.20;;;14.00;99.90;14.20;100113.00;;;;342580;28;91967;-92
2022/12/20 00:05:17;;;;;;;1.05;0.20;;;14.00;99.90;14.30;100117.00;;;;344696;28;83734;-92
2022/12/20 00:05:28;;;;;;;0.80;0.10;;;14.00;99.90;14.30;100100.00;;;;342903;28;91742;-92
2022/12/20 00:05:41;;;;;;;0.60;0.10;;;14.00;99.90;14.30;100097.00;;;;343243;28;85251;-92
2022/12/20 00:05:53;;;;;;;0.52;0.10;;;14.00;99.90;14.30;100115.00;;;;340483;28;91185;-92
2022/12/20 00:06:05;;;;;;;1.90;0.50;;;14.00;99.90;14.30;100108.00;;;;342073;28;84384;-92
2022/12/20 00:06:17;;;;;;;2.00;0.50;;;14.00;99.90;14.20;100106.00;;;;341814;28;90270;-91
2022/12/20 00:06:29;;;;;;;2.25;0.47;;;14.00;99.90;14.30;100105.00;;;;342011;28;83062;-92
2022/12/20 00:06:41;;;;;;;1.50;0.20;;;14.00;99.90;14.20;100102.00;;;;341873;28;90810;-93
2022/12/20 00:06:53;;;;;;;1.58;0.22;;;14.00;99.90;14.30;100117.00;;;;346412;28;83506;-92
2022/12/20 00:07:05;;;;;;;2.42;0.30;;;14.00;99.90;14.20;100109.00;;;;341756;28;91429;-92
2022/12/20 00:07:17;;;;;;;2.10;0.40;;;14.00;99.90;14.20;100098.00;;;;343666;28;83605;-92
2022/12/20 00:07:29;;;;;;;1.15;0.20;;;14.00;99.90;14.30;100091.00;;;;340436;28;90734;-92
2022/12/20 00:07:40;;;;;;;1.33;0.20;;;14.00;99.90;14.30;100110.00;;;;343638;28;83414;-92
2022/12/20 00:07:52;;;;;;;1.40;0.20;;;14.00;99.90;14.30;100140.00;;;;343006;28;90789;-92
2022/12/20 00:08:06;;;;;;;0.95;0.15;;;14.00;99.90;14.40;100116.00;;;;342764;28;82698;-92
2022/12/20 00:08:17;;;;;;;1.10;0.20;;;14.00;99.90;14.30;100125.00;;;;340666;28;90938;-92
2022/12/20 00:08:30;;;;;;;1.00;0.20;;;14.10;99.90;14.30;100117.00;;;;343705;28;83737;-92
2022/12/20 00:08:42;;;;;;;0.40;0.20;;;14.10;99.90;14.40;100110.00;;;;341983;28;91004;-92
2022/12/20 00:08:59;;;;;;;0.50;0.10;;;14.10;99.90;14.30;100106.00;;;;343699;28;85083;-92
2022/12/20 00:09:11;;;;;;;0.60;0.10;;;14.10;99.90;14.30;100117.00;;;;341753;28;91533;-90
2022/12/20 00:09:24;;;;;;;0.52;0.10;;;14.10;99.90;14.40;100119.00;;;;342472;28;82777;-92
2022/12/20 00:09:36;;;;;;;0.47;0.10;;;14.10;99.90;14.40;100124.00;;;;340462;28;90514;-92
2022/12/20 00:09:48;;;;;;;0.88;0.10;;;14.00;99.90;14.40;100130.00;;;;343498;28;83933;-92
2022/12/20 00:10:00;;;;;;;1.00;0.20;;;14.10;99.90;14.40;100099.00;;;;344116;28;90842;-92
2022/12/20 00:10:12;;;;;;;0.90;0.20;;;14.10;99.90;14.40;100126.00;;;;341887;28;83344;-92
2022/12/20 00:10:24;;;;;;;0.88;0.20;;;14.10;99.90;14.40;100063.00;;;;339873;28;91791;-92
2022/12/20 00:10:40;;;;;;;0.82;0.20;;;14.10;99.90;14.40;100119.00;;;;341739;28;84172;-91
2022/12/20 00:10:52;;;;;;;1.27;0.17;;;14.10;99.90;14.30;100110.00;;;;341204;28;92158;-92
2022/12/20 00:11:05;;;;;;;1.15;0.10;;;14.10;99.90;14.30;100108.00;;;;340226;28;83784;-92
2022/12/20 00:11:17;;;;;;;1.88;0.20;;;14.10;99.90;14.40;100116.00;;;;341269;28;92880;-92
2022/12/20 00:11:29;;;;;;;2.30;0.20;;;14.10;99.90;14.40;100123.00;;;;340433;28;84632;-93
2022/12/20 00:11:41;;;;;;;1.65;0.13;;;14.10;99.90;14.40;100097.00;;;;341222;28;91916;-92
2022/12/20 00:11:53;;;;;;;0.65;0.15;;;14.10;99.90;14.40;100125.00;;;;339061;28;84413;-92
2022/12/20 00:12:05;;;;;;;0.50;0.20;;;14.10;99.90;14.30;100103.00;;;;341396;28;91918;-92
2022/12/20 00:12:17;;;;;;;0.65;0.20;;;14.10;99.90;14.40;100109.00;;;;341820;28;83698;-92
2022/12/20 00:12:29;;;;;;;1.40;0.30;;;14.10;99.90;14.40;100110.00;;;;340022;28;91173;-92
2022/12/20 00:12:41;;;;;;;1.15;0.30;;;14.10;99.90;14.40;100118.00;;;;340359;28;83546;-92
2022/12/20 00:12:53;;;;;;;1.52;0.22;;;14.10;99.90;14.40;100096.00;;;;341448;28;87927;-92
2022/12/20 00:13:05;;;;;;;1.70;0.20;;;14.10;99.90;14.40;100108.00;;;;341631;28;84977;-93
2022/12/20 00:13:17;;;;;;;1.13;0.30;;;14.10;99.90;14.40;100117.00;;;;340136;28;90002;-92
2022/12/20 00:13:29;;;;;;;1.30;0.30;;;14.20;99.90;14.30;100111.00;;;;341599;28;83974;-92
2022/12/20 00:13:41;;;;;;;2.38;0.22;;;14.10;99.90;14.30;100121.00;;;;339957;28;91474;-92
2022/12/20 00:13:53;;;;;;;3.50;0.20;;;14.10;99.90;14.40;100119.00;;;;343297;28;83982;-92
2022/12/20 00:14:06;;;;;;;3.47;0.60;;;14.10;99.90;14.40;100097.00;;;;342385;28;90811;-91
2022/12/20 00:14:18;;;;;;;2.65;0.60;;;14.10;99.90;14.40;100121.00;;;;344081;28;84596;-92
2022/12/20 00:14:30;;;;;;;0.82;0.20;;;14.10;99.90;14.30;100110.00;;;;341037;28;91135;-92
2022/12/20 00:14:42;;;;;;;1.05;0.20;;;14.10;99.90;14.40;100133.00;;;;342603;28;83541;-91
2022/12/20 00:14:53;;;;;;;0.90;0.20;;;14.10;99.90;14.30;100118.00;;;;338142;28;90707;-92
2022/12/20 00:15:08;;;;;;;0.77;0.20;;;14.20;99.90;14.40;100119.00;;;;339709;28;85014;-92
2022/12/20 00:15:20;;;;;;;4.07;0.70;;;14.10;99.90;14.40;100129.00;;;;341175;28;92734;-92
2022/12/20 00:15:32;;;;;;;4.07;0.60;;;14.10;99.90;14.40;100104.00;;;;343867;28;84135;-91
2022/12/20 00:15:44;;;;;;;1.85;0.20;;;14.10;99.90;14.40;100119.00;;;;337956;28;91307;-91
2022/12/20 00:16:20;;;;;;;0.80;0.30;;;14.10;99.90;14.40;100115.00;;;;341054;28;83361;-92
2022/12/20 00:16:32;;;;;;;2.80;0.40;;;14.10;99.90;14.30;100114.00;;;;340468;28;92833;-91
2022/12/20 00:16:44;;;;;;;2.65;0.40;;;14.10;99.90;14.30;100110.00;;;;339552;28;84035;-91
2022/12/20 00:16:56;;;;;;;0.70;0.20;;;14.10;99.90;14.30;100108.00;;;;340396;28;90688;-92
2022/12/20 00:17:08;;;;;;;0.32;0.10;;;14.10;99.90;14.30;100115.00;;;;341978;28;83601;-92
2022/12/20 00:17:20;;;;;;;0.30;0.10;;;14.10;99.90;14.30;100108.00;;;;343655;28;91426;-91
2022/12/20 00:17:32;;;;;;;0.43;0.20;;;14.10;99.90;14.30;100117.00;;;;343938;28;83595;-92
2022/12/20 00:17:44;;;;;;;0.60;0.20;;;14.10;99.90;14.30;100113.00;;;;343268;28;91835;-91
2022/12/20 00:17:57;;;;;;;0.98;0.28;;;14.10;99.90;14.40;100115.00;;;;343477;28;84861;-91
2022/12/20 00:18:09;;;;;;;1.08;0.30;;;14.10;99.90;14.40;100099.00;;;;342717;28;88459;-91
2022/12/20 00:18:21;;;;;;;0.95;0.25;;;14.10;99.90;14.40;100109.00;;;;344106;28;84556;-91
2022/12/20 00:18:33;;;;;;;0.73;0.13;;;14.10;99.90;14.40;100107.00;;;;341269;28;90902;-92
2022/12/20 00:18:46;;;;;;;1.10;0.20;;;14.10;99.90;14.40;100107.00;;;;340720;28;84120;-92
2022/12/20 00:19:01;;;;;;;1.02;0.20;;;14.10;99.90;14.40;100111.00;;;;341374;28;90768;-92
2022/12/20 00:19:12;;;;;;;0.55;0.15;;;14.10;99.90;14.40;100104.00;;;;339045;28;83911;-92
2022/12/20 00:19:24;;;;;;;0.60;0.20;;;14.10;99.90;14.40;100114.00;;;;341425;28;91699;-92
2022/12/20 00:19:36;;;;;;;1.10;0.20;;;14.10;99.90;14.40;100110.00;;;;340563;28;83251;-93
2022/12/20 00:19:48;;;;;;;0.90;0.20;;;14.10;99.90;14.30;100118.00;;;;339862;28;92835;-91
2022/12/20 00:20:00;;;;;;;2.40;0.40;;;14.10;99.90;14.30;100109.00;;;;341756;28;83656;-92
2022/12/20 00:20:12;;;;;;;2.90;0.30;;;14.10;99.90;14.30;100115.00;;;;339997;28;91911;-92
2022/12/20 00:20:25;;;;;;;2.38;0.22;;;14.10;99.90;14.20;100125.00;;;;345562;28;84222;-92
2022/12/20 00:20:36;;;;;;;1.17;0.10;;;14.10;99.90;14.20;100123.00;;;;342543;28;91256;-92
2022/12/20 00:20:48;;;;;;;0.60;0.10;;;14.10;99.90;14.10;100124.00;;;;341820;28;84073;-92
2022/12/20 00:21:01;;;;;;;0.60;0.20;;;14.10;99.90;14.20;100109.00;;;;342480;28;90516;-92
2022/12/20 00:21:13;;;;;;;3.03;0.30;;;14.10;99.90;14.30;100108.00;;;;342467;28;84673;-92
2022/12/20 00:21:25;;;;;;;3.20;0.30;;;14.10;99.90;14.30;100121.00;;;;342247;28;90641;-92
2022/12/20 00:21:37;;;;;;;3.08;0.30;;;14.10;99.90;14.30;100122.00;;;;343919;28;84883;-92
2022/12/20 00:21:49;;;;;;;1.05;0.20;;;14.10;99.90;14.30;100101.00;;;;339275;28;91772;-92
2022/12/20 00:22:01;;;;;;;0.70;0.20;;;14.10;99.90;14.30;100120.00;;;;340913;28;83328;-92
2022/12/20 00:22:13;;;;;;;1.70;0.20;;;14.10;99.90;14.20;100118.00;;;;342358;28;91528;-92
2022/12/20 00:22:25;;;;;;;1.70;0.10;;;14.00;99.90;14.20;100140.00;;;;340947;28;83253;-92
2022/12/20 00:22:36;;;;;;;0.85;0.10;;;14.10;99.90;14.30;100123.00;;;;340989;28;89452;-92
2022/12/20 00:22:48;;;;;;;0.65;0.20;;;14.00;99.90;14.30;100117.00;;;;341333;28;82447;-92
2022/12/20 00:23:00;;;;;;;0.85;0.20;;;14.00;99.90;14.20;100111.00;;;;341077;28;91394;-92
2022/12/20 00:23:13;;;;;;;1.40;0.30;;;14.00;99.90;14.30;100122.00;;;;341612;28;82717;-92
2022/12/20 00:23:25;;;;;;;1.27;0.30;;;14.00;99.90;14.20;100124.00;;;;342182;28;90966;-92
2022/12/20 00:23:37;;;;;;;0.65;0.20;;;14.00;99.90;14.20;100122.00;;;;341599;28;83355;-92
2022/12/20 00:23:50;;;;;;;2.20;0.20;;;14.00;99.90;14.20;100112.00;;;;340750;28;91547;-92
2022/12/20 00:24:03;;;;;;;2.20;0.20;;;14.00;99.90;14.30;100104.00;;;;344286;28;84760;-92
2022/12/20 00:24:16;;;;;;;0.75;0.20;;;14.00;99.90;14.30;100116.00;;;;343871;28;91272;-93
2022/12/20 00:24:36;;;;;;;1.25;0.30;;;14.00;99.90;14.30;100112.00;;;;343113;28;83482;-92
2022/12/20 00:24:48;;;;;;;1.05;0.30;;;14.00;99.90;14.30;100129.00;;;;341311;28;90274;-92
2022/12/20 00:25:00;;;;;;;0.70;0.22;;;14.00;99.90;14.20;100102.00;;;;341523;28;83737;-93
2022/12/20 00:25:12;;;;;;;0.90;0.20;;;14.00;99.90;14.30;100119.00;;;;342504;28;90546;-92
2022/12/20 00:25:24;;;;;;;1.70;0.40;;;14.00;99.90;14.30;100104.00;;;;341334;28;83007;-93
2022/12/20 00:25:36;;;;;;;1.75;0.40;;;14.00;99.90;14.30;100105.00;;;;343948;28;91156;-93
2022/12/20 00:25:47;;;;;;;1.33;0.32;;;14.00;99.90;14.20;100118.00;;;;342666;28;83304;-93
2022/12/20 00:26:03;;;;;;;0.80;0.20;;;14.00;99.90;14.20;100110.00;;;;339790;28;92146;-92
2022/12/20 00:26:16;;;;;;;0.70;0.20;;;14.00;99.90;14.20;100123.00;;;;340202;28;83596;-93
2022/12/20 00:26:30;;;;;;;1.05;0.20;;;14.00;99.90;14.20;100117.00;;;;341151;28;92315;-92
2022/12/20 00:26:42;;;;;;;2.20;0.30;;;14.00;99.90;14.30;100165.00;;;;340369;28;82207;-93
2022/12/20 00:26:54;;;;;;;1.88;0.30;;;14.00;99.90;14.30;100112.00;;;;342503;28;90800;-92
2022/12/20 00:27:06;;;;;;;0.63;0.10;;;14.00;99.90;14.30;100111.00;;;;342709;28;85276;-92
2022/12/20 00:27:17;;;;;;;0.80;0.10;;;14.10;99.90;14.30;100117.00;;;;342588;28;90160;-92
2022/12/20 00:27:29;;;;;;;0.75;0.10;;;14.00;99.90;14.40;100112.00;;;;342876;28;83568;-92
2022/12/20 00:27:41;;;;;;;1.23;0.20;;;14.00;99.90;14.40;100128.00;;;;343852;28;90892;-93
2022/12/20 00:27:53;;;;;;;2.42;0.25;;;14.10;99.90;14.30;100091.00;;;;341563;28;83925;-92
2022/12/20 00:28:05;;;;;;;1.83;0.28;;;14.10;99.90;14.30;100099.00;;;;342283;28;91791;-92
2022/12/20 00:28:17;;;;;;;1.20;0.20;;;14.10;99.90;14.30;100114.00;;;;342961;28;83344;-92
2022/12/20 00:28:29;;;;;;;1.85;0.38;;;14.10;99.90;14.30;100121.00;;;;341108;28;91261;-92
2022/12/20 00:28:42;;;;;;;3.90;0.50;;;14.10;99.90;14.40;100122.00;;;;340687;28;83798;-92
2022/12/20 00:28:55;;;;;;;3.55;0.60;;;14.10;99.90;14.40;100129.00;;;;341632;28;91234;-92
2022/12/20 00:29:07;;;;;;;1.60;0.50;;;14.10;99.90;14.40;100127.00;;;;344566;28;84810;-92
2022/12/20 00:29:19;;;;;;;1.63;0.38;;;14.10;99.90;14.40;100116.00;;;;341648;28;89797;-93
2022/12/20 00:29:31;;;;;;;3.38;0.38;;;14.10;99.90;14.30;100119.00;;;;343275;28;83598;-92
2022/12/20 00:29:43;;;;;;;3.75;0.30;;;14.10;99.90;14.30;100114.00;;;;341478;28;90581;-92
2022/12/20 00:29:55;;;;;;;3.00;0.30;;;14.10;99.90;14.30;100108.00;;;;341888;28;83497;-92
2022/12/20 00:30:07;;;;;;;0.95;0.20;;;14.10;99.90;14.30;100110.00;;;;342880;28;91529;-92
2022/12/20 00:30:19;;;;;;;0.77;0.20;;;14.10;99.90;14.40;100122.00;;;;342030;28;83644;-92
2022/12/20 00:30:31;;;;;;;0.90;0.20;;;14.10;99.90;14.40;100095.00;;;;344154;28;90902;-92
2022/12/20 00:30:43;;;;;;;1.20;0.20;;;14.10;99.90;14.40;100113.00;;;;343283;28;84188;-92
2022/12/20 00:30:55;;;;;;;1.30;0.20;;;14.10;99.90;14.40;100122.00;;;;341611;28;90951;-93
2022/12/20 00:31:08;;;;;;;1.52;0.30;;;14.10;99.90;14.40;100117.00;;;;340581;28;82722;-92
2022/12/20 00:31:20;;;;;;;1.85;0.30;;;14.10;99.90;14.40;100114.00;;;;340300;28;90228;-92
2022/12/20 00:31:33;;;;;;;3.70;0.25;;;14.10;99.90;14.40;100119.00;;;;341833;28;83553;-93
2022/12/20 00:31:45;;;;;;;3.38;0.30;;;14.10;99.90;14.40;100127.00;;;;340113;28;91663;-92
2022/12/20 00:31:57;;;;;;;0.80;0.30;;;14.10;99.90;14.40;100131.00;;;;342007;28;83830;-92
2022/12/20 00:32:09;;;;;;;0.88;0.17;;;14.10;99.90;14.40;100110.00;;;;339727;28;92015;-92
2022/12/20 00:32:21;;;;;;;1.00;0.30;;;14.10;99.90;14.40;100115.00;;;;339988;28;83704;-93
2022/12/20 00:32:33;;;;;;;1.35;0.30;;;14.10;99.90;14.40;100110.00;;;;340911;28;90524;-93
2022/12/20 00:32:45;;;;;;;1.75;0.20;;;14.10;99.90;14.30;100109.00;;;;341432;28;83505;-92
2022/12/20 00:32:57;;;;;;;1.60;0.20;;;14.10;99.90;14.30;100118.00;;;;341130;28;90773;-92
2022/12/20 00:33:09;;;;;;;1.20;0.22;;;14.10;99.90;14.30;100111.00;;;;341408;28;83503;-92
2022/12/20 00:33:21;;;;;;;0.68;0.20;;;14.10;99.90;14.30;100111.00;;;;342380;28;91062;-93
2022/12/20 00:33:34;;;;;;;0.80;0.40;;;14.10;99.90;14.30;100112.00;;;;341635;28;83424;-92
2022/12/20 00:33:48;;;;;;;1.42;0.32;;;14.10;99.90;14.30;100119.00;;;;342340;28;91725;-93
2022/12/20 00:34:00;;;;;;;2.88;0.38;;;14.10;99.90;14.30;100120.00;;;;342714;28;83511;-93
2022/12/20 00:34:12;;;;;;;3.35;0.80;;;14.10;99.90;14.30;100106.00;;;;342565;28;91949;-92
2022/12/20 00:34:24;;;;;;;2.17;0.73;;;14.10;99.90;14.30;100114.00;;;;344043;28;83234;-93
2022/12/20 00:34:36;;;;;;;1.55;0.25;;;14.10;99.90;14.30;100114.00;;;;343654;28;91767;-93
2022/12/20 00:34:48;;;;;;;1.77;0.30;;;14.10;99.90;14.20;100109.00;;;;342688;28;84805;-92
2022/12/20 00:34:59;;;;;;;1.70;0.30;;;14.10;99.90;14.30;100118.00;;;;342271;28;90518;-92
2022/12/20 00:35:11;;;;;;;0.82;0.20;;;14.10;99.90;14.30;100113.00;;;;342696;28;83645;-92
2022/12/20 00:35:23;;;;;;;1.65;0.43;;;14.10;99.90;14.20;100117.00;;;;343295;28;90457;-92
2022/12/20 00:35:35;;;;;;;2.40;0.60;;;14.10;99.90;14.30;100118.00;;;;340604;28;84473;-92
2022/12/20 00:35:47;;;;;;;2.03;0.60;;;14.10;99.90;14.30;100124.00;;;;340973;28;91667;-92
2022/12/20 00:35:59;;;;;;;1.33;0.30;;;14.10;99.90;14.30;100112.00;;;;340593;28;83606;-92
2022/12/20 00:36:11;;;;;;;2.03;0.30;;;14.10;99.90;14.30;100111.00;;;;343080;28;91704;-92
2022/12/20 00:36:24;;;;;;;1.98;0.30;;;14.10;99.90;14.30;100118.00;;;;340872;28;85395;-92
2022/12/20 00:36:38;;;;;;;2.20;0.90;;;14.10;99.90;14.30;100106.00;;;;340623;28;91808;-92
2022/12/20 00:36:50;;;;;;;2.13;0.90;;;14.10;99.90;14.30;100117.00;;;;340993;28;83462;-92
2022/12/20 00:37:02;;;;;;;3.03;0.52;;;14.10;99.90;14.30;100119.00;;;;341841;28;90809;-93
2022/12/20 00:37:14;;;;;;;4.30;0.30;;;14.10;99.90;14.20;100123.00;;;;343695;28;83329;-93
2022/12/20 00:37:26;;;;;;;6.40;0.40;;;14.10;99.90;14.20;100127.00;;;;341935;28;91028;-93
2022/12/20 00:37:38;;;;;;;4.78;0.40;;;14.10;99.90;14.20;100130.00;;;;340880;28;83911;-93
2022/12/20 00:37:49;;;;;;;0.98;0.20;;;14.00;99.90;14.20;100131.00;;;;340648;28;90784;-92
2022/12/20 00:38:01;;;;;;;2.10;0.30;;;14.00;99.90;14.30;100124.00;;;;340951;28;84035;-93
2022/12/20 00:38:13;;;;;;;3.30;0.30;;;14.00;99.90;14.20;100116.00;;;;341832;28;92728;-92
2022/12/20 00:38:25;;;;;;;3.17;0.30;;;14.00;99.90;14.30;100118.00;;;;342096;28;83358;-92
2022/12/20 00:38:37;;;;;;;2.80;0.30;;;14.00;99.90;14.20;100113.00;;;;343139;28;90633;-92
2022/12/20 00:38:51;;;;;;;1.17;0.30;;;14.00;99.90;14.20;100126.00;;;;338080;28;83758;-92
2022/12/20 00:39:03;;;;;;;0.80;0.20;;;14.00;99.90;14.20;100113.00;;;;338927;28;92390;-92
2022/12/20 00:39:14;;;;;;;0.80;0.20;;;14.00;99.90;14.30;100122.00;;;;339017;28;83395;-92
2022/12/20 00:39:26;;;;;;;1.13;0.22;;;14.00;99.90;14.20;100124.00;;;;341462;28;90851;-92
2022/12/20 00:39:38;;;;;;;1.95;0.30;;;14.00;99.90;14.20;100134.00;;;;343071;28;83784;-92
2022/12/20 00:39:50;;;;;;;2.45;0.50;;;14.00;99.90;14.20;100128.00;;;;342665;28;92325;-93
2022/12/20 00:40:03;;;;;;;1.23;0.30;;;14.00;99.90;14.20;100121.00;;;;342966;28;83367;-92
2022/12/20 00:40:15;;;;;;;0.77;0.20;;;14.00;99.90;14.20;100126.00;;;;341436;28;91561;-93
2022/12/20 00:40:27;;;;;;;2.47;0.20;;;14.00;99.90;14.20;100125.00;;;;341714;28;84360;-92
2022/12/20 00:40:39;;;;;;;2.67;0.28;;;14.00;99.90;14.20;100125.00;;;;339999;28;91747;-93
2022/12/20 00:41:09;;;;;;;2.18;0.20;;;14.00;99.90;14.30;100130.00;;;;337723;28;83999;-92
2022/12/20 00:41:26;;;;;;;1.60;0.20;;;14.00;99.90;14.20;100124.00;;;;341320;28;91664;-92
2022/12/20 00:41:39;;;;;;;2.60;0.30;;;14.00;99.90;14.20;100115.00;;;;340284;28;83799;-92
2022/12/20 00:41:51;;;;;;;2.83;0.43;;;14.00;99.90;14.20;100120.00;;;;338801;28;89312;-92
2022/12/20 00:42:03;;;;;;;2.13;0.45;;;14.00;99.90;14.20;100118.00;;;;340280;28;82986;-92
2022/12/20 00:42:15;;;;;;;1.70;0.45;;;14.00;99.90;14.20;100120.00;;;;341391;28;91746;-93
2022/12/20 00:42:26;;;;;;;1.33;0.20;;;14.00;99.90;14.20;100123.00;;;;340244;28;83957;-93
2022/12/20 00:42:38;;;;;;;2.20;0.20;;;14.00;99.90;14.30;100126.00;;;;341287;28;91702;-92
2022/12/20 00:42:50;;;;;;;2.70;1.00;;;14.00;99.90;14.30;100140.00;;;;337531;28;84483;-92
2022/12/20 00:43:03;;;;;;;2.65;1.10;;;14.00;99.90;14.30;100143.00;;;;341225;28;90685;-92
2022/12/20 00:43:15;;;;;;;2.90;0.98;;;14.00;99.90;14.30;100122.00;;;;341765;28;83573;-92
2022/12/20 00:43:27;;;;;;;1.95;0.30;;;14.00;99.90;14.30;100138.00;;;;342695;28;90686;-92
2022/12/20 00:43:39;;;;;;;2.28;0.40;;;14.00;99.90;14.40;100126.00;;;;340353;28;85000;-92
2022/12/20 00:43:52;;;;;;;1.42;0.30;;;14.00;99.90;14.30;100125.00;;;;341344;28;91533;-92
2022/12/20 00:44:04;;;;;;;1.10;0.30;;;14.00;99.90;14.30;100110.00;;;;340374;28;84927;-92
2022/12/20 00:44:15;;;;;;;1.30;0.30;;;14.00;99.90;14.40;100122.00;;;;341174;28;89806;-92
2022/12/20 00:44:27;;;;;;;1.08;0.22;;;14.00;99.90;14.40;100133.00;;;;341549;28;84669;-93
2022/12/20 00:44:39;;;;;;;1.25;0.20;;;14.10;99.90;14.40;100127.00;;;;342561;28;91600;-92
2022/12/20 00:44:51;;;;;;;1.20;0.20;;;14.10;99.90;14.30;100129.00;;;;338989;28;85179;-92
2022/12/20 00:45:03;;;;;;;0.77;0.20;;;14.10;99.90;14.30;100124.00;;;;339524;28;91944;-93
2022/12/20 00:45:15;;;;;;;1.17;0.20;;;14.10;99.90;14.20;100123.00;;;;340465;28;83259;-93
2022/12/20 00:45:27;;;;;;;1.77;0.30;;;14.10;99.90;14.20;100120.00;;;;339944;28;91275;-92
2022/12/20 00:45:39;;;;;;;1.30;0.30;;;14.10;99.90;14.30;100119.00;;;;340344;28;83396;-92
2022/12/20 00:45:52;;;;;;;1.92;0.30;;;14.10;99.90;14.30;100128.00;;;;339948;28;91927;-92
2022/12/20 00:46:04;;;;;;;2.28;0.30;;;14.10;99.90;14.30;100123.00;;;;341670;28;84957;-92
2022/12/20 00:46:17;;;;;;;1.70;0.20;;;14.10;99.90;14.30;100122.00;;;;342679;28;90890;-91
2022/12/20 00:46:30;;;;;;;1.30;0.20;;;14.10;99.90;14.40;100129.00;;;;340414;28;83914;-92
2022/12/20 00:46:42;;;;;;;1.65;0.20;;;14.10;99.90;14.40;100133.00;;;;338590;28;92262;-93
2022/12/20 00:46:54;;;;;;;1.90;0.30;;;14.10;99.90;14.30;100116.00;;;;341710;28;83767;-93
2022/12/20 00:47:06;;;;;;;1.70;0.20;;;14.10;99.90;14.20;100108.00;;;;341201;28;91492;-91
2022/12/20 00:47:18;;;;;;;1.50;0.20;;;14.10;99.90;14.20;100112.00;;;;341732;28;84153;-93
2022/12/20 00:47:30;;;;;;;1.80;0.20;;;14.10;99.90;14.20;100117.00;;;;341102;28;92322;-92
2022/12/20 00:47:42;;;;;;;1.52;0.35;;;14.10;99.90;14.20;100126.00;;;;337666;28;83517;-93
2022/12/20 00:47:54;;;;;;;2.38;0.60;;;14.10;99.90;14.20;100122.00;;;;340040;28;91927;-92
2022/12/20 00:48:06;;;;;;;1.98;0.50;;;14.10;99.90;14.20;100108.00;;;;340451;28;84671;-93
2022/12/20 00:48:18;;;;;;;0.88;0.20;;;14.00;99.90;14.20;100105.00;;;;338699;28;91952;-92
2022/12/20 00:48:30;;;;;;;0.90;0.22;;;14.00;99.90;14.20;100126.00;;;;341724;28;85330;-93
2022/12/20 00:48:42;;;;;;;1.00;0.30;;;14.00;99.90;14.20;100111.00;;;;341310;28;91984;-92
2022/12/20 00:48:54;;;;;;;2.50;0.60;;;14.00;99.90;14.20;100101.00;;;;341813;28;84655;-92
2022/12/20 00:49:06;;;;;;;3.35;0.95;;;14.10;99.90;14.20;100121.00;;;;341264;28;91642;-92
2022/12/20 00:49:18;;;;;;;2.70;0.80;;;14.00;99.90;14.20;100112.00;;;;340371;28;83706;-92
2022/12/20 00:49:30;;;;;;;1.42;0.50;;;14.00;99.90;14.20;100108.00;;;;341381;28;91924;-92
2022/12/20 00:49:42;;;;;;;0.93;0.20;;;14.00;99.90;14.30;100107.00;;;;340215;28;84695;-93
2022/12/20 00:49:53;;;;;;;1.58;0.25;;;14.00;99.90;14.30;100117.00;;;;338701;28;90099;-93
2022/12/20 00:50:06;;;;;;;1.83;0.30;;;14.00;99.90;14.30;100118.00;;;;341605;28;84691;-93
2022/12/20 00:50:18;;;;;;;1.73;0.47;;;14.00;99.90;14.30;100125.00;;;;341388;28;90902;-93
2022/12/20 00:50:30;;;;;;;2.60;0.40;;;14.10;99.90;14.20;100112.00;;;;341629;28;84886;-92
2022/12/20 00:50:41;;;;;;;3.10;0.30;;;14.00;99.90;14.30;100116.00;;;;341234;28;91790;-92
2022/12/20 00:51:02;;;;;;;2.80;0.20;;;14.10;99.90;14.30;100115.00;;;;342939;28;83491;-92
2022/12/20 00:51:19;;;;;;;3.20;0.30;;;14.10;99.90;14.30;100122.00;;;;339918;28;92115;-92
2022/12/20 00:51:31;;;;;;;2.05;0.40;;;14.10;99.90;14.30;100117.00;;;;339018;28;84125;-91
2022/12/20 00:51:43;;;;;;;1.02;0.43;;;14.10;99.90;14.30;100123.00;;;;339877;28;91696;-92
2022/12/20 00:51:55;;;;;;;1.23;0.30;;;14.10;99.90;14.30;100109.00;;;;340380;28;84634;-92
2022/12/20 00:52:07;;;;;;;1.50;0.30;;;14.10;99.90;14.20;100115.00;;;;338800;28;88297;-92
2022/12/20 00:52:20;;;;;;;1.00;0.20;;;14.10;99.90;14.30;100126.00;;;;341598;28;84713;-92
2022/12/20 00:52:31;;;;;;;1.33;0.20;;;14.10;99.90;14.30;100125.00;;;;341368;28;91491;-91
2022/12/20 00:52:43;;;;;;;2.00;0.30;;;14.10;99.90;14.30;100106.00;;;;341744;28;84769;-92
2022/12/20 00:52:55;;;;;;;2.40;0.30;;;14.10;99.90;14.30;100107.00;;;;341285;28;93215;-92
2022/12/20 00:53:09;;;;;;;1.50;0.20;;;14.10;99.90;14.30;100114.00;;;;340386;28;83444;-91
2022/12/20 00:53:21;;;;;;;3.00;0.40;;;14.00;99.90;14.30;100128.00;;;;341333;28;90656;-92
2022/12/20 00:53:37;;;;;;;2.40;0.30;;;14.00;99.90;14.30;100112.00;;;;340345;28;83738;-92
2022/12/20 00:53:49;;;;;;;0.90;0.30;;;14.00;99.90;14.30;100103.00;;;;341321;28;90905;-92
2022/12/20 00:54:01;;;;;;;1.35;0.40;;;14.00;99.90;14.30;100106.00;;;;338967;28;85468;-91
2022/12/20 00:54:13;;;;;;;1.45;0.47;;;14.00;99.90;14.30;100112.00;;;;339993;28;91917;-92
2022/12/20 00:54:25;;;;;;;1.25;0.40;;;14.00;99.90;14.40;100118.00;;;;342972;28;84102;-92
2022/12/20 00:54:36;;;;;;;0.98;0.25;;;14.00;99.90;14.30;100131.00;;;;341376;28;90496;-92
2022/12/20 00:54:48;;;;;;;2.33;0.57;;;14.10;99.90;14.30;100118.00;;;;340228;28;83200;-92
2022/12/20 00:55:00;;;;;;;3.35;0.60;;;14.10;99.90;14.20;100111.00;;;;339692;28;92224;-91
2022/12/20 00:55:12;;;;;;;2.45;0.50;;;14.00;99.90;14.20;100125.00;;;;340385;28;83819;-92
2022/12/20 00:55:24;;;;;;;2.28;0.40;;;14.00;99.90;14.30;100113.00;;;;338652;28;91088;-91